createdAt,value
2023-05-18T00:00:01.979Z,101194.45
2023-05-18T00:02:51.534Z,101194.42
2023-05-18T00:05:18.239Z,101195.08
2023-05-18T00:07:46.234Z,101198.83
2023-05-18T00:10:12.709Z,101204.88
2023-05-18T00:12:39.255Z,101204.02
2023-05-18T00:15:06.147Z,101207.24
2023-05-18T00:17:32.559Z,101207.64
2023-05-18T00:20:00.355Z,101212.08
2023-05-18T00:22:26.803Z,101212.90
2023-05-18T00:24:53.212Z,101215.58
2023-05-18T00:27:19.756Z,101210.61
2023-05-18T00:29:46.253Z,101208.80
2023-05-18T00:32:12.662Z,101212.27
2023-05-18T00:34:39.235Z,101212.80
2023-05-18T00:37:05.767Z,101213.63
2023-05-18T00:39:32.113Z,101213.94
2023-05-18T00:41:58.608Z,101220.52
2023-05-18T00:44:26.122Z,101222.73
2023-05-18T00:46:53.697Z,101221.11
2023-05-18T00:49:20.570Z,101222.11
2023-05-18T00:51:47.458Z,101223.01
2023-05-18T00:54:15.880Z,101224.73
2023-05-18T00:56:45.530Z,101224.52
2023-05-18T00:59:12.067Z,101226.90
2023-05-18T01:01:43.069Z,101227.02
2023-05-18T01:04:09.816Z,101226.98
2023-05-18T01:06:36.666Z,101228.16
2023-05-18T01:09:06.107Z,101227.05
2023-05-18T01:11:32.613Z,101229.24
2023-05-18T01:14:39.395Z,101230.71
2023-05-18T01:17:21.146Z,101234.80
2023-05-18T01:19:50.953Z,101240.34
2023-05-18T01:22:33.289Z,101247.03
2023-05-18T01:25:16.794Z,101249.27
2023-05-18T01:27:45.775Z,101247.55
2023-05-18T01:30:17.377Z,101251.16
2023-05-18T01:32:46.391Z,101248.81
2023-05-18T01:35:13.004Z,101249.38
2023-05-18T01:37:39.854Z,101247.48
2023-05-18T01:40:08.567Z,101247.29
2023-05-18T01:42:44.041Z,101248.95
2023-05-18T01:45:21.015Z,101248.66
2023-05-18T01:47:48.715Z,101246.95
2023-05-18T01:50:25.177Z,101250.64
2023-05-18T01:52:57.766Z,101250.61
2023-05-18T01:55:29.123Z,101247.66
2023-05-18T01:57:59.841Z,101247.50
2023-05-18T02:00:26.736Z,101248.27
2023-05-18T02:02:53.173Z,101252.48
2023-05-18T02:05:19.741Z,101255.08
2023-05-18T02:07:47.147Z,101256.09
2023-05-18T02:10:14.136Z,101259.90
2023-05-18T02:12:41.065Z,101261.70
2023-05-18T02:15:09.530Z,101264.11
2023-05-18T02:17:39.334Z,101266.59
2023-05-18T02:20:07.318Z,101265.33
2023-05-18T02:22:34.856Z,101265.17
2023-05-18T02:25:02.664Z,101263.27
2023-05-18T02:27:29.302Z,101266.70
2023-05-18T02:29:56.083Z,101271.69
2023-05-18T02:32:23.479Z,101268.11
2023-05-18T02:34:53.072Z,101268.05
2023-05-18T02:37:22.349Z,101265.61
2023-05-18T02:39:49.372Z,101271.21
2023-05-18T02:42:15.784Z,101277.70
2023-05-18T02:44:44.710Z,101278.09
2023-05-18T02:47:13.470Z,101286.17
2023-05-18T02:49:40.971Z,101286.49
2023-05-18T02:52:07.452Z,101288.30
2023-05-18T02:54:34.062Z,101294.00
2023-05-18T02:57:01.077Z,101292.61
2023-05-18T02:59:35.651Z,101287.86
2023-05-18T03:02:02.518Z,101292.14
2023-05-18T03:04:28.977Z,101299.87
2023-05-18T03:06:56.579Z,101293.67
2023-05-18T03:09:23.362Z,101301.16
2023-05-18T03:11:51.108Z,101304.91
2023-05-18T03:14:17.429Z,101306.84
2023-05-18T03:16:44.597Z,101311.99
2023-05-18T03:19:15.309Z,101307.38
2023-05-18T03:21:41.970Z,101311.80
2023-05-18T03:24:08.432Z,101318.06
2023-05-18T03:26:39.171Z,101317.94
2023-05-18T03:29:05.785Z,101317.34
2023-05-18T03:31:32.701Z,101317.84
2023-05-18T03:33:59.544Z,101320.06
2023-05-18T03:36:27.427Z,101321.42
2023-05-18T03:38:54.050Z,101321.42
2023-05-18T03:41:21.455Z,101320.14
2023-05-18T03:43:47.860Z,101321.81
2023-05-18T03:46:14.296Z,101324.20
2023-05-18T03:48:40.626Z,101328.23
2023-05-18T03:51:07.296Z,101334.15
2023-05-18T03:53:35.526Z,101337.45
2023-05-18T03:56:01.992Z,101340.31
2023-05-18T03:58:29.347Z,101341.55
2023-05-18T04:01:01.275Z,101342.58
2023-05-18T04:03:27.886Z,101346.06
2023-05-18T04:05:55.181Z,101352.01
2023-05-18T04:08:24.760Z,101352.86
2023-05-18T04:10:51.983Z,101353.60
2023-05-18T04:13:18.458Z,101358.59
2023-05-18T04:15:45.225Z,101361.63
2023-05-18T04:18:13.093Z,101361.60
2023-05-18T04:20:41.920Z,101361.02
2023-05-18T04:23:09.498Z,101363.60
2023-05-18T04:25:35.878Z,101367.36
2023-05-18T04:28:02.484Z,101370.08
2023-05-18T04:30:30.392Z,101368.11
2023-05-18T04:32:59.836Z,101364.52
2023-05-18T04:35:27.221Z,101366.98
2023-05-18T04:37:54.005Z,101365.01
2023-05-18T04:40:20.376Z,101367.33
2023-05-18T04:42:49.109Z,101368.93
2023-05-18T04:45:25.345Z,101368.86
2023-05-18T04:47:54.792Z,101370.85
2023-05-18T04:50:23.081Z,101369.92
2023-05-18T04:52:50.823Z,101371.85
2023-05-18T04:55:27.307Z,101372.81
2023-05-18T04:58:04.218Z,101373.80
2023-05-18T05:00:30.809Z,101378.92
2023-05-18T05:02:58.584Z,101377.64
2023-05-18T05:05:26.224Z,101382.71
2023-05-18T05:07:53.574Z,101382.39
2023-05-18T05:10:21.508Z,101380.71
2023-05-18T05:12:50.784Z,101383.74
2023-05-18T05:15:18.406Z,101387.21
2023-05-18T05:17:48.165Z,101389.37
2023-05-18T05:20:15.613Z,101390.94
2023-05-18T05:22:42.387Z,101391.14
2023-05-18T05:25:10.806Z,101396.93
2023-05-18T05:27:38.261Z,101398.06
2023-05-18T05:30:05.438Z,101401.33
2023-05-18T05:32:35.316Z,101400.69
2023-05-18T05:35:02.817Z,101400.92
2023-05-18T05:37:29.317Z,101401.50
2023-05-18T05:39:56.237Z,101407.30
2023-05-18T05:42:24.777Z,101409.86
2023-05-18T05:44:51.187Z,101410.01
2023-05-18T05:47:18.949Z,101412.40
2023-05-18T05:49:45.607Z,101410.38
2023-05-18T05:52:12.100Z,101409.83
2023-05-18T05:54:40.436Z,101411.28
2023-05-18T05:57:07.056Z,101407.54
2023-05-18T05:59:33.624Z,101405.19
2023-05-18T06:02:00.491Z,101409.30
2023-05-18T06:04:27.409Z,101405.05
2023-05-18T06:06:54.766Z,101409.17
2023-05-18T06:09:21.483Z,101413.54
2023-05-18T06:11:52.260Z,101418.10
2023-05-18T06:14:19.104Z,101420.54
2023-05-18T06:16:45.639Z,101422.64
2023-05-18T06:19:12.257Z,101417.43
2023-05-18T06:21:39.125Z,101419.57
2023-05-18T06:24:06.294Z,101416.71
2023-05-18T06:27:01.833Z,101419.67
2023-05-18T06:29:37.650Z,101426.89
2023-05-18T06:32:32.579Z,101429.21
2023-05-18T06:35:00.282Z,101427.47
2023-05-18T06:37:26.686Z,101433.21
2023-05-18T06:39:53.197Z,101431.30
2023-05-18T06:42:19.811Z,101431.53
2023-05-18T06:44:53.517Z,101430.75
2023-05-18T06:47:28.765Z,101431.95
2023-05-18T06:49:55.387Z,101433.08
2023-05-18T06:52:23.188Z,101436.27
2023-05-18T06:54:50.770Z,101434.52
2023-05-18T06:57:17.625Z,101436.33
2023-05-18T06:59:44.148Z,101433.61
2023-05-18T07:02:10.501Z,101434.31
2023-05-18T07:04:37.070Z,101435.05
2023-05-18T07:07:03.570Z,101438.16
2023-05-18T07:09:30.105Z,101437.64
2023-05-18T07:11:56.510Z,101440.27
2023-05-18T07:14:23.381Z,101443.06
2023-05-18T07:16:49.758Z,101443.02
2023-05-18T07:19:16.130Z,101447.90
2023-05-18T07:21:42.538Z,101445.61
2023-05-18T07:24:09.205Z,101451.00
2023-05-18T07:26:35.596Z,101449.60
2023-05-18T07:29:02.161Z,101448.48
2023-05-18T07:31:28.548Z,101447.85
2023-05-18T07:33:55.045Z,101450.13
2023-05-18T07:36:21.583Z,101449.08
2023-05-18T07:38:53.410Z,101452.69
2023-05-18T07:41:22.049Z,101455.52
2023-05-18T07:43:50.519Z,101455.89
2023-05-18T07:46:17.761Z,101452.99
2023-05-18T07:48:44.831Z,101453.01
2023-05-18T07:51:11.787Z,101458.45
2023-05-18T07:53:38.856Z,101459.07
2023-05-18T07:56:06.942Z,101460.14
2023-05-18T07:58:34.966Z,101461.43
2023-05-18T08:01:01.444Z,101464.03
2023-05-18T08:03:27.831Z,101465.08
2023-05-18T08:05:54.409Z,101468.48
2023-05-18T08:08:21.163Z,101470.41
2023-05-18T08:10:47.591Z,101470.36
2023-05-18T08:13:14.342Z,101468.23
2023-05-18T08:15:40.693Z,101466.80
2023-05-18T08:18:07.130Z,101462.53
2023-05-18T08:20:33.776Z,101464.08
2023-05-18T08:23:00.175Z,101462.83
2023-05-18T08:25:26.543Z,101468.05
2023-05-18T08:27:53.108Z,101470.48
2023-05-18T08:30:21.101Z,101470.65
2023-05-18T08:32:48.249Z,101472.56
2023-05-18T08:35:14.705Z,101469.36
2023-05-18T08:37:41.111Z,101471.08
2023-05-18T08:40:10.882Z,101468.83
2023-05-18T08:42:58.423Z,101472.65
2023-05-18T08:45:38.558Z,101467.98
2023-05-18T08:48:05.669Z,101473.45
2023-05-18T08:50:32.525Z,101470.63
2023-05-18T08:53:05.267Z,101471.64
2023-05-18T08:55:36.392Z,101472.40
2023-05-18T08:58:06.602Z,101469.99
2023-05-18T09:00:33.493Z,101469.23
2023-05-18T09:03:00.564Z,101465.75
2023-05-18T09:05:27.268Z,101465.05
2023-05-18T09:07:54.289Z,101467.01
2023-05-18T09:10:22.080Z,101468.53
2023-05-18T09:12:50.085Z,101468.23
2023-05-18T09:15:21.311Z,101464.98
2023-05-18T09:17:47.689Z,101470.90
2023-05-18T09:20:15.870Z,101463.60
2023-05-18T09:22:42.359Z,101460.68
2023-05-18T09:25:09.972Z,101463.58
2023-05-18T09:27:37.590Z,101461.98
2023-05-18T09:30:04.567Z,101464.16
2023-05-18T09:32:35.591Z,101462.02
2023-05-18T09:35:06.060Z,101461.20
2023-05-18T09:37:33.261Z,101464.86
2023-05-18T09:40:01.563Z,101466.92
2023-05-18T09:42:39.333Z,101460.98
2023-05-18T09:45:26.119Z,101465.16
2023-05-18T09:47:52.791Z,101467.82
2023-05-18T09:50:23.340Z,101472.98
2023-05-18T09:52:50.426Z,101476.63
2023-05-18T09:55:19.075Z,101471.45
2023-05-18T09:57:47.557Z,101467.49
2023-05-18T10:00:16.318Z,101464.88
2023-05-18T10:02:48.241Z,101461.86
2023-05-18T10:05:33.210Z,101462.59
2023-05-18T10:08:01.308Z,101465.66
2023-05-18T10:10:28.947Z,101461.84
2023-05-18T10:12:57.743Z,101464.73
2023-05-18T10:15:24.842Z,101464.86
2023-05-18T10:17:55.757Z,101461.00
2023-05-18T10:20:23.768Z,101459.27
2023-05-18T10:22:50.256Z,101460.05
2023-05-18T10:25:24.898Z,101460.87
2023-05-18T10:27:56.251Z,101458.54
2023-05-18T10:30:22.972Z,101460.71
2023-05-18T10:32:51.778Z,101458.38
2023-05-18T10:35:18.888Z,101456.94
2023-05-18T10:37:47.305Z,101459.21
2023-05-18T10:40:17.028Z,101457.16
2023-05-18T10:42:45.586Z,101459.78
2023-05-18T10:45:12.236Z,101463.63
2023-05-18T10:47:41.958Z,101458.96
2023-05-18T10:50:09.369Z,101457.99
2023-05-18T10:52:40.714Z,101461.58
2023-05-18T10:55:08.846Z,101461.81
2023-05-18T10:57:42.866Z,101462.40
2023-05-18T11:00:09.987Z,101461.45
2023-05-18T11:02:41.716Z,101461.21
2023-05-18T11:05:10.260Z,101458.92
2023-05-18T11:07:37.879Z,101458.33
2023-05-18T11:10:09.438Z,101458.42
2023-05-18T11:12:37.806Z,101452.27
2023-05-18T11:15:05.329Z,101449.17
2023-05-18T11:17:31.894Z,101449.75
2023-05-18T11:20:07.453Z,101441.46
2023-05-18T11:22:46.012Z,101448.41
2023-05-18T11:25:27.690Z,101447.26
2023-05-18T11:28:05.878Z,101442.92
2023-05-18T11:30:32.302Z,101441.95
2023-05-18T11:33:11.134Z,101443.92
2023-05-18T11:36:12.922Z,101446.33
2023-05-18T11:38:53.574Z,101440.35
2023-05-18T11:41:46.959Z,101443.88
2023-05-18T11:44:24.257Z,101443.18
2023-05-18T11:46:53.588Z,101444.10
2023-05-18T11:49:23.264Z,101447.98
2023-05-18T11:52:24.310Z,101444.14
2023-05-18T11:55:00.634Z,101445.23
2023-05-18T11:57:35.776Z,101448.81
2023-05-18T12:00:12.788Z,101450.00
2023-05-18T12:02:43.137Z,101450.05
2023-05-18T12:05:10.530Z,101451.39
2023-05-18T12:07:38.458Z,101448.34
2023-05-18T12:10:11.202Z,101448.70
2023-05-18T12:12:38.898Z,101449.52
2023-05-18T12:15:07.253Z,101454.35
2023-05-18T12:17:43.824Z,101456.25
2023-05-18T12:20:14.873Z,101453.61
2023-05-18T12:22:43.825Z,101450.95
2023-05-18T12:25:10.994Z,101452.45
2023-05-18T12:27:43.111Z,101455.86
2023-05-18T12:30:13.377Z,101453.08
2023-05-18T12:32:47.964Z,101446.69
2023-05-18T12:35:14.506Z,101447.17
2023-05-18T12:37:45.968Z,101445.18
2023-05-18T12:40:15.242Z,101447.48
2023-05-18T12:43:03.579Z,101443.86
2023-05-18T12:45:32.449Z,101452.41
2023-05-18T12:48:06.251Z,101445.77
2023-05-18T12:50:34.137Z,101446.67
2023-05-18T12:53:03.358Z,101446.30
2023-05-18T12:55:31.370Z,101448.56
2023-05-18T12:58:17.229Z,101445.34
2023-05-18T13:00:47.774Z,101446.83
2023-05-18T13:03:20.878Z,101448.63
2023-05-18T13:06:03.042Z,101446.50
2023-05-18T13:08:31.499Z,101446.73
2023-05-18T13:11:12.845Z,101441.64
2023-05-18T13:14:04.033Z,101438.39
2023-05-18T13:16:32.287Z,101438.63
2023-05-18T13:19:01.920Z,101441.73
2023-05-18T13:21:28.824Z,101436.23
2023-05-18T13:23:56.718Z,101438.61
2023-05-18T13:26:24.704Z,101435.73
2023-05-18T13:28:54.059Z,101436.18
2023-05-18T13:31:21.609Z,101436.06
2023-05-18T13:33:49.660Z,101439.22
2023-05-18T13:36:16.895Z,101437.39
2023-05-18T13:38:43.480Z,101437.88
2023-05-18T13:41:14.393Z,101439.02
2023-05-18T13:43:42.006Z,101437.93
2023-05-18T13:46:08.414Z,101436.75
2023-05-18T13:48:34.857Z,101440.91
2023-05-18T13:51:01.476Z,101440.67
2023-05-18T13:53:27.943Z,101441.13
2023-05-18T13:55:54.307Z,101440.54
2023-05-18T13:58:20.644Z,101438.06
2023-05-18T14:00:47.127Z,101439.23
2023-05-18T14:03:14.462Z,101442.02
2023-05-18T14:05:41.178Z,101440.63
2023-05-18T14:08:07.734Z,101445.98
2023-05-18T14:10:34.282Z,101445.89
2023-05-18T14:13:00.736Z,101442.00
2023-05-18T14:15:27.114Z,101447.42
2023-05-18T14:17:53.577Z,101442.88
2023-05-18T14:20:20.252Z,101441.95
2023-05-18T14:22:46.698Z,101444.69
2023-05-18T14:25:13.119Z,101443.97
2023-05-18T14:27:39.475Z,101441.05
2023-05-18T14:30:06.656Z,101441.65
2023-05-18T14:32:33.151Z,101442.52
2023-05-18T14:34:59.594Z,101441.16
2023-05-18T14:37:26.125Z,101436.34
2023-05-18T14:39:52.780Z,101437.47
2023-05-18T14:42:19.422Z,101442.45
2023-05-18T14:44:46.820Z,101444.66
2023-05-18T14:47:13.322Z,101446.96
2023-05-18T14:49:39.725Z,101443.73
2023-05-18T14:52:06.245Z,101443.02
2023-05-18T14:54:32.667Z,101442.23
2023-05-18T14:56:59.134Z,101441.55
2023-05-18T14:59:25.479Z,101450.48
2023-05-18T15:01:51.984Z,101448.42
2023-05-18T15:04:21.053Z,101444.55
2023-05-18T15:06:48.662Z,101443.85
2023-05-18T15:09:15.355Z,101444.18
2023-05-18T15:11:41.878Z,101440.57
2023-05-18T15:14:08.292Z,101440.70
2023-05-18T15:16:35.270Z,101442.52
2023-05-18T15:19:01.970Z,101439.52
2023-05-18T15:21:28.825Z,101438.52
2023-05-18T15:23:55.426Z,101445.91
2023-05-18T15:26:21.823Z,101441.11
2023-05-18T15:28:48.695Z,101443.04
2023-05-18T15:31:15.913Z,101439.98
2023-05-18T15:33:43.136Z,101441.45
2023-05-18T15:36:10.088Z,101441.32
2023-05-18T15:38:36.491Z,101443.04
2023-05-18T15:41:03.253Z,101444.98
2023-05-18T15:43:30.378Z,101444.86
2023-05-18T15:45:57.524Z,101446.04
2023-05-18T15:48:23.948Z,101443.27
2023-05-18T15:50:50.307Z,101441.48
2023-05-18T15:53:16.687Z,101439.81
2023-05-18T15:55:43.027Z,101442.00
2023-05-18T15:58:09.454Z,101441.71
2023-05-18T16:00:35.820Z,101440.26
2023-05-18T16:03:02.297Z,101442.01
2023-05-18T16:05:29.114Z,101443.82
2023-05-18T16:07:55.776Z,101443.17
2023-05-18T16:10:22.887Z,101441.50
2023-05-18T16:12:49.205Z,101443.77
2023-05-18T16:15:15.687Z,101447.16
2023-05-18T16:17:42.118Z,101446.21
2023-05-18T16:20:09.049Z,101445.80
2023-05-18T16:22:35.530Z,101442.46
2023-05-18T16:25:01.893Z,101444.02
2023-05-18T16:27:28.243Z,101444.91
2023-05-18T16:29:54.685Z,101443.04
2023-05-18T16:32:21.210Z,101447.45
2023-05-18T16:34:47.624Z,101446.65
2023-05-18T16:37:13.965Z,101446.45
2023-05-18T16:39:40.518Z,101447.33
2023-05-18T16:42:07.013Z,101446.45
2023-05-18T16:44:34.057Z,101443.86
2023-05-18T16:47:00.312Z,101442.58
2023-05-18T16:49:26.690Z,101447.34
2023-05-18T16:51:53.211Z,101449.65
2023-05-18T16:54:19.657Z,101451.98
2023-05-18T16:56:46.255Z,101452.56
2023-05-18T16:59:12.665Z,101457.95
2023-05-18T17:01:38.955Z,101455.23
2023-05-18T17:04:05.495Z,101455.53
2023-05-18T17:06:31.910Z,101457.13
2023-05-18T17:08:58.659Z,101457.84
2023-05-18T17:11:27.009Z,101456.88
2023-05-18T17:13:53.730Z,101456.95
2023-05-18T17:16:21.332Z,101461.11
2023-05-18T17:18:48.254Z,101461.41
2023-05-18T17:21:15.348Z,101464.73
2023-05-18T17:23:41.625Z,101461.83
2023-05-18T17:26:08.026Z,101464.77
2023-05-18T17:28:34.361Z,101465.07
2023-05-18T17:31:00.807Z,101464.07
2023-05-18T17:33:27.096Z,101465.05
2023-05-18T17:35:53.421Z,101464.75
2023-05-18T17:38:21.810Z,101467.71
2023-05-18T17:40:48.065Z,101464.38
2023-05-18T17:43:14.413Z,101470.17
2023-05-18T17:45:40.793Z,101473.66
2023-05-18T17:48:07.176Z,101472.49
2023-05-18T17:50:36.919Z,101472.46
2023-05-18T17:53:04.192Z,101473.38
2023-05-18T17:55:30.652Z,101477.10
2023-05-18T17:57:58.919Z,101478.05
2023-05-18T18:00:25.369Z,101479.30
2023-05-18T18:02:51.745Z,101485.56
2023-05-18T18:05:18.129Z,101484.17
2023-05-18T18:07:44.467Z,101483.86
2023-05-18T18:10:11.143Z,101484.85
2023-05-18T18:12:37.423Z,101485.02
2023-05-18T18:15:03.991Z,101487.61
2023-05-18T18:17:30.660Z,101487.20
2023-05-18T18:19:57.782Z,101492.60
2023-05-18T18:22:24.097Z,101492.52
2023-05-18T18:24:50.362Z,101497.75
2023-05-18T18:27:18.692Z,101494.67
2023-05-18T18:29:45.600Z,101499.67
2023-05-18T18:32:11.941Z,101499.98
2023-05-18T18:34:38.331Z,101502.61
2023-05-18T18:37:04.978Z,101502.70
2023-05-18T18:39:31.438Z,101500.39
2023-05-18T18:41:57.784Z,101504.08
2023-05-18T18:44:24.080Z,101505.98
2023-05-18T18:46:50.509Z,101508.91
2023-05-18T18:49:16.954Z,101506.67
2023-05-18T18:51:43.624Z,101508.48
2023-05-18T18:54:10.260Z,101505.67
2023-05-18T18:56:36.587Z,101509.71
2023-05-18T18:59:02.943Z,101511.05
2023-05-18T19:01:29.292Z,101509.18
2023-05-18T19:03:55.677Z,101512.68
2023-05-18T19:06:22.624Z,101513.16
2023-05-18T19:08:51.513Z,101509.98
2023-05-18T19:11:17.951Z,101509.71
2023-05-18T19:13:44.203Z,101507.41
2023-05-18T19:16:10.656Z,101509.42
2023-05-18T19:18:37.109Z,101512.24
2023-05-18T19:21:03.517Z,101513.15
2023-05-18T19:23:29.788Z,101514.27
2023-05-18T19:25:56.190Z,101515.23
2023-05-18T19:28:22.716Z,101515.83
2023-05-18T19:30:48.999Z,101516.98
2023-05-18T19:33:15.498Z,101520.98
2023-05-18T19:35:41.971Z,101520.19
2023-05-18T19:38:08.428Z,101520.30
2023-05-18T19:40:35.192Z,101519.25
2023-05-18T19:43:02.526Z,101518.68
2023-05-18T19:45:29.118Z,101520.29
2023-05-18T19:47:57.176Z,101519.74
2023-05-18T19:50:23.565Z,101520.13
2023-05-18T19:52:50.102Z,101522.14
2023-05-18T19:55:17.123Z,101525.85
2023-05-18T19:57:43.428Z,101523.29
2023-05-18T20:00:13.098Z,101523.92
2023-05-18T20:02:39.586Z,101526.45
2023-05-18T20:05:06.896Z,101525.77
2023-05-18T20:07:33.440Z,101526.73
2023-05-18T20:09:59.871Z,101533.31
2023-05-18T20:12:27.635Z,101533.67
2023-05-18T20:14:54.508Z,101530.45
2023-05-18T20:17:20.952Z,101532.23
2023-05-18T20:19:49.881Z,101530.21
2023-05-18T20:22:17.206Z,101528.73
2023-05-18T20:24:44.054Z,101531.42
2023-05-18T20:27:14.457Z,101532.70
2023-05-18T20:29:40.894Z,101534.92
2023-05-18T20:32:07.345Z,101537.65
2023-05-18T20:34:34.368Z,101539.11
2023-05-18T20:37:01.921Z,101542.40
2023-05-18T20:39:28.340Z,101545.61
2023-05-18T20:41:54.661Z,101550.56
2023-05-18T20:44:22.785Z,101552.95
2023-05-18T20:46:52.197Z,101555.91
2023-05-18T20:49:20.963Z,101554.50
2023-05-18T20:51:48.567Z,101555.23
2023-05-18T20:54:17.156Z,101560.98
2023-05-18T20:56:43.782Z,101564.77
2023-05-18T20:59:11.983Z,101564.17
2023-05-18T21:01:38.787Z,101565.86
2023-05-18T21:04:05.684Z,101560.38
2023-05-18T21:06:32.205Z,101561.61
2023-05-18T21:08:58.640Z,101560.63
2023-05-18T21:11:25.515Z,101565.87
2023-05-18T21:13:51.989Z,101568.80
2023-05-18T21:16:18.602Z,101571.00
2023-05-18T21:18:45.053Z,101569.19
2023-05-18T21:21:11.346Z,101568.52
2023-05-18T21:23:37.828Z,101566.99
2023-05-18T21:26:04.273Z,101565.20
2023-05-18T21:28:31.102Z,101567.42
2023-05-18T21:30:57.553Z,101568.80
2023-05-18T21:33:24.117Z,101571.48
2023-05-18T21:35:50.672Z,101572.21
2023-05-18T21:38:17.057Z,101574.65
2023-05-18T21:40:43.936Z,101576.40
2023-05-18T21:43:10.991Z,101576.23
2023-05-18T21:45:38.196Z,101577.66
2023-05-18T21:48:05.000Z,101582.71
2023-05-18T21:50:33.764Z,101583.44
2023-05-18T21:53:02.153Z,101581.07
2023-05-18T21:55:29.735Z,101584.31
2023-05-18T21:57:56.073Z,101585.58
2023-05-18T22:00:22.428Z,101592.56
2023-05-18T22:02:48.732Z,101589.57
2023-05-18T22:05:15.484Z,101588.70
2023-05-18T22:07:42.109Z,101588.48
2023-05-18T22:10:08.690Z,101592.58
2023-05-18T22:12:37.091Z,101595.92
2023-05-18T22:15:04.134Z,101598.23
2023-05-18T22:17:30.498Z,101599.40
2023-05-18T22:19:57.518Z,101599.80
2023-05-18T22:24:55.422Z,101604.21
2023-05-18T22:27:21.740Z,101603.41
2023-05-18T22:29:48.004Z,101597.37
2023-05-18T22:32:16.324Z,101600.15
2023-05-18T22:34:42.714Z,101602.96
2023-05-18T22:37:08.987Z,101597.96
2023-05-18T22:39:35.298Z,101597.33
2023-05-18T22:42:01.589Z,101598.45
2023-05-18T22:44:27.960Z,101602.36
2023-05-18T22:46:54.474Z,101602.41
2023-05-18T22:49:21.479Z,101602.64
2023-05-18T22:51:47.804Z,101595.23
2023-05-18T22:54:14.276Z,101600.52
2023-05-18T22:56:40.624Z,101598.20
2023-05-18T22:59:09.552Z,101599.54
2023-05-18T23:01:36.961Z,101598.97
2023-05-18T23:04:03.354Z,101599.13
2023-05-18T23:06:31.019Z,101599.14
2023-05-18T23:08:59.781Z,101600.17
2023-05-18T23:11:27.663Z,101597.91
2023-05-18T23:13:54.020Z,101596.98
2023-05-18T23:16:20.696Z,101595.36
2023-05-18T23:18:48.090Z,101593.69
2023-05-18T23:21:14.361Z,101597.45
2023-05-18T23:23:40.857Z,101597.13
2023-05-18T23:26:08.441Z,101598.77
2023-05-18T23:28:35.023Z,101598.54
2023-05-18T23:31:01.304Z,101595.88
2023-05-18T23:33:28.107Z,101596.39
2023-05-18T23:35:59.173Z,101594.66
2023-05-18T23:38:33.979Z,101594.91
2023-05-18T23:41:03.021Z,101594.41
2023-05-18T23:43:29.716Z,101591.73
2023-05-18T23:45:58.851Z,101591.88
2023-05-18T23:48:31.647Z,101589.61
2023-05-18T23:51:01.052Z,101590.17
2023-05-18T23:53:31.846Z,101585.35
2023-05-18T23:55:59.460Z,101586.37
2023-05-18T23:58:31.354Z,101586.66
